createdAt,value
2023-04-01T18:00:14.464Z,10.48
2023-04-01T18:01:27.128Z,10.50
2023-04-01T18:03:06.830Z,10.42
2023-04-01T18:04:12.784Z,10.45
2023-04-01T18:05:38.352Z,10.42
2023-04-01T18:06:44.224Z,10.47
2023-04-01T18:09:08.821Z,10.50
2023-04-01T18:10:20.744Z,10.44
2023-04-01T18:11:52.506Z,10.46
2023-04-01T18:13:35.306Z,10.45
2023-04-01T18:14:56.358Z,10.43
2023-04-01T18:18:09.830Z,10.39
2023-04-01T18:19:21.542Z,10.31
2023-04-01T18:20:53.015Z,10.34
2023-04-01T18:21:58.801Z,10.31
2023-04-01T18:23:04.536Z,10.33
2023-04-01T18:24:38.070Z,10.28
2023-04-01T18:25:47.306Z,10.28
2023-04-01T18:27:22.435Z,10.33
2023-04-01T18:28:40.162Z,10.29
2023-04-01T18:29:50.561Z,10.26
2023-04-01T18:31:03.269Z,10.27
2023-04-01T18:33:44.902Z,10.35
2023-04-01T18:34:50.671Z,10.26
2023-04-01T18:36:05.249Z,10.28
2023-04-01T18:37:34.742Z,10.24
2023-04-01T18:40:18.153Z,10.28
2023-04-01T18:41:43.225Z,10.28
2023-04-01T18:43:19.587Z,10.24
2023-04-01T18:44:48.049Z,10.28
2023-04-01T18:46:02.990Z,10.26
2023-04-01T18:47:29.886Z,10.23
2023-04-01T18:48:54.665Z,10.25
2023-04-01T18:50:17.369Z,10.26
2023-04-01T18:52:45.993Z,10.27
2023-04-01T18:53:55.398Z,10.20
2023-04-01T18:55:07.217Z,10.24
2023-04-01T18:56:13.036Z,10.19
2023-04-01T18:57:16.946Z,10.21
2023-04-01T18:58:30.123Z,10.19
2023-04-01T18:59:41.546Z,10.13
2023-04-01T19:00:47.431Z,10.14
2023-04-01T19:02:19.005Z,10.15
2023-04-01T19:03:36.955Z,10.20
2023-04-01T19:04:43.409Z,10.18
2023-04-01T19:05:48.797Z,10.20
2023-04-01T19:06:59.507Z,10.20
2023-04-01T19:08:29.062Z,10.13
2023-04-01T19:09:46.498Z,10.15
2023-04-01T19:11:04.690Z,10.16
2023-04-01T19:12:32.163Z,10.12
2023-04-01T19:13:59.164Z,10.17
2023-04-01T19:15:14.944Z,10.16
2023-04-01T19:16:24.213Z,10.15
2023-04-01T19:17:40.891Z,10.12
2023-04-01T19:19:08.970Z,10.18
2023-04-01T19:20:25.011Z,10.16
2023-04-01T19:21:30.895Z,10.14
2023-04-01T19:22:44.873Z,10.12
2023-04-01T19:24:13.464Z,10.13
2023-04-01T19:25:46.309Z,10.13
2023-04-01T19:27:01.515Z,10.11
2023-04-01T19:28:11.488Z,10.12
2023-04-01T19:29:51.416Z,10.15
2023-04-01T19:30:57.412Z,10.10
2023-04-01T19:32:26.449Z,10.12
2023-04-01T19:33:35.026Z,10.12
2023-04-01T19:34:49.609Z,10.01
2023-04-01T19:36:04.690Z,10.06
2023-04-01T19:37:28.189Z,10.06
2023-04-01T19:38:40.221Z,10.05
2023-04-01T19:40:13.846Z,9.96
2023-04-01T19:43:19.602Z,9.97
2023-04-01T19:44:37.064Z,9.91
2023-04-01T19:45:45.277Z,9.90
2023-04-01T19:46:54.073Z,9.92
2023-04-01T19:48:22.845Z,9.86
2023-04-01T19:49:31.519Z,9.89
2023-04-01T19:50:49.572Z,9.89
2023-04-01T19:52:03.904Z,9.83
2023-04-01T19:54:49.677Z,9.84
2023-04-01T19:56:04.427Z,9.81
2023-04-01T19:57:26.986Z,9.80
2023-04-01T19:58:41.770Z,9.75
2023-04-01T19:59:59.188Z,9.75
2023-04-01T20:01:04.640Z,9.78
2023-04-01T20:02:13.491Z,9.77
2023-04-01T20:03:19.352Z,9.70
2023-04-01T20:04:31.006Z,9.69
2023-04-01T20:05:42.895Z,9.72
2023-04-01T20:07:07.238Z,9.69
2023-04-01T20:08:32.761Z,9.73
2023-04-01T20:09:51.052Z,9.66
2023-04-01T20:10:59.919Z,9.68
2023-04-01T20:12:17.927Z,9.68
2023-04-01T20:13:29.978Z,9.71
2023-04-01T20:14:43.065Z,9.68
2023-04-01T20:15:48.977Z,9.64
2023-04-01T20:17:00.867Z,9.62
2023-04-01T20:18:06.595Z,9.62
2023-04-01T20:19:11.547Z,9.66
2023-04-01T20:20:21.861Z,9.64
2023-04-01T20:21:45.645Z,9.65
2023-04-01T20:23:12.931Z,9.65
2023-04-01T20:25:50.251Z,9.65
2023-04-01T20:27:14.569Z,9.60
2023-04-01T20:28:23.627Z,9.60
2023-04-01T20:29:29.338Z,9.59
2023-04-01T20:30:47.475Z,9.59
2023-04-01T20:32:00.005Z,9.56
2023-04-01T20:33:17.781Z,9.55
2023-04-01T20:34:23.461Z,9.55
2023-04-01T20:35:38.787Z,9.59
2023-04-01T20:37:04.437Z,9.55
2023-04-01T20:38:13.363Z,9.57
2023-04-01T20:39:48.239Z,9.55
2023-04-01T20:40:53.819Z,9.56
2023-04-01T20:42:14.436Z,9.53
2023-04-01T20:43:53.898Z,9.47
2023-04-01T20:46:47.000Z,9.51
2023-04-01T20:48:19.923Z,9.50
2023-04-01T20:49:23.778Z,9.52
2023-04-01T20:50:36.065Z,9.50
2023-04-01T20:51:42.782Z,9.53
2023-04-01T20:53:06.704Z,9.56
2023-04-01T20:54:29.766Z,9.55
2023-04-01T20:55:52.618Z,9.53
2023-04-01T20:57:25.540Z,9.52
2023-04-01T20:58:34.232Z,9.58
2023-04-01T20:59:40.114Z,9.54
2023-04-01T21:00:51.535Z,9.51
2023-04-01T21:02:01.410Z,9.48
2023-04-01T21:03:12.712Z,9.48
2023-04-01T21:04:33.209Z,9.50
2023-04-01T21:06:14.037Z,9.51
2023-04-01T21:07:46.418Z,9.51
2023-04-01T21:09:01.358Z,9.50
2023-04-01T21:10:10.279Z,9.48
2023-04-01T21:11:36.233Z,9.46
2023-04-01T21:12:42.430Z,9.50
2023-04-01T21:14:08.821Z,9.43
2023-04-01T21:15:17.327Z,9.41
2023-04-01T21:16:38.571Z,9.43
2023-04-01T21:17:59.200Z,9.42
2023-04-01T21:19:10.703Z,9.48
2023-04-01T21:20:16.591Z,9.46
2023-04-01T21:21:34.696Z,9.48
2023-04-01T21:22:58.641Z,9.45
2023-04-01T21:24:13.356Z,9.43
2023-04-01T21:25:29.629Z,9.45
2023-04-01T21:26:36.323Z,9.45
2023-04-01T21:27:48.323Z,9.50
2023-04-01T21:29:11.378Z,9.48
2023-04-01T21:30:28.860Z,9.46
2023-04-01T21:31:51.550Z,9.50
2023-04-01T21:33:14.027Z,9.48
2023-04-01T21:34:39.736Z,9.42
2023-04-01T21:36:02.020Z,9.42
2023-04-01T21:37:19.641Z,9.38
2023-04-01T21:38:59.354Z,9.41
2023-04-01T21:40:38.961Z,9.33
2023-04-01T21:41:47.609Z,9.39
2023-04-01T21:43:12.721Z,9.37
2023-04-01T21:44:35.501Z,9.37
2023-04-01T21:45:53.345Z,9.42
2023-04-01T21:47:20.618Z,9.37
2023-04-01T21:48:58.041Z,9.30
2023-04-01T21:50:24.999Z,9.31
2023-04-01T21:51:59.980Z,9.35
2023-04-01T21:54:36.787Z,9.30
2023-04-01T21:56:04.053Z,9.29
2023-04-01T21:57:25.178Z,9.31
2023-04-01T21:58:54.580Z,9.33
2023-04-01T22:00:09.276Z,9.28
2023-04-01T22:01:33.084Z,9.23
2023-04-01T22:02:50.720Z,9.25
2023-04-01T22:04:11.919Z,9.23
2023-04-01T22:05:23.608Z,9.23
2023-04-01T22:06:40.909Z,9.21
2023-04-01T22:09:27.603Z,9.20
2023-04-01T22:10:33.608Z,9.17
2023-04-01T22:11:55.226Z,9.19
2023-04-01T22:13:22.704Z,9.14
2023-04-01T22:14:28.829Z,9.17
2023-04-01T22:16:09.303Z,9.15
2023-04-01T22:17:33.478Z,9.14
2023-04-01T22:18:45.630Z,9.19
2023-04-01T22:19:57.240Z,9.16
2023-04-01T22:21:12.238Z,9.16
2023-04-01T22:22:21.287Z,9.09
2023-04-01T22:23:41.799Z,9.15
2023-04-01T22:24:53.711Z,9.14
2023-04-01T22:26:02.072Z,9.14
2023-04-01T22:27:21.130Z,9.11
2023-04-01T22:28:30.047Z,9.10
2023-04-01T22:29:35.936Z,9.10
2023-04-01T22:30:54.489Z,9.09
2023-04-01T22:33:22.360Z,9.16
2023-04-01T22:34:47.862Z,9.09
2023-04-01T22:35:59.579Z,9.13
2023-04-01T22:38:37.294Z,9.15
2023-04-01T22:41:29.020Z,9.08
2023-04-01T22:42:47.147Z,8.99
2023-04-01T22:43:51.480Z,9.04
2023-04-01T22:45:20.471Z,9.00
2023-04-01T22:46:32.388Z,9.00
2023-04-01T22:47:45.022Z,9.01
2023-04-01T22:48:56.906Z,8.97
2023-04-01T22:50:05.636Z,8.93
2023-04-01T22:51:17.506Z,8.95
2023-04-01T22:52:44.212Z,8.97
2023-04-01T22:56:37.008Z,9.02
2023-04-01T22:57:45.703Z,8.98
2023-04-01T22:58:55.270Z,9.00
2023-04-01T23:00:16.360Z,9.01
2023-04-01T23:01:25.263Z,8.98
2023-04-01T23:02:34.165Z,8.94
2023-04-01T23:03:40.080Z,8.97
2023-04-01T23:04:45.139Z,8.98
2023-04-01T23:05:56.837Z,9.00
2023-04-01T23:07:02.961Z,9.00
2023-04-01T23:08:28.684Z,8.98
2023-04-01T23:09:34.074Z,8.97
2023-04-01T23:10:49.069Z,8.91
2023-04-01T23:11:58.265Z,9.00
2023-04-01T23:13:03.187Z,8.97
2023-04-01T23:14:17.942Z,9.00
2023-04-01T23:15:21.478Z,8.97
2023-04-01T23:16:27.470Z,9.00
2023-04-01T23:17:52.242Z,9.00
2023-04-01T23:19:20.792Z,9.01
2023-04-01T23:20:38.650Z,9.02
2023-04-01T23:21:53.428Z,9.03
2023-04-01T23:23:13.907Z,8.96
2023-04-01T23:24:31.473Z,9.00
2023-04-01T23:25:39.901Z,9.00
2023-04-01T23:26:45.732Z,8.99
2023-04-01T23:27:54.307Z,8.96
2023-04-01T23:28:58.755Z,8.97
2023-04-01T23:30:03.284Z,8.99
2023-04-01T23:32:26.353Z,9.02
2023-04-01T23:33:30.804Z,8.94
2023-04-01T23:34:35.897Z,8.91
2023-04-01T23:35:51.022Z,8.97
2023-04-01T23:37:02.651Z,8.92
2023-04-01T23:38:05.339Z,8.88
2023-04-01T23:39:22.601Z,8.89
2023-04-01T23:40:26.403Z,8.90
2023-04-01T23:41:32.830Z,8.89
2023-04-01T23:42:41.061Z,8.92
2023-04-01T23:43:45.409Z,8.96
2023-04-01T23:44:53.567Z,8.95
2023-04-01T23:45:56.408Z,8.96
2023-04-01T23:47:01.185Z,8.98
2023-04-01T23:48:03.489Z,8.95
2023-04-01T23:49:09.722Z,8.91
2023-04-01T23:50:20.992Z,8.86
2023-04-01T23:51:29.815Z,8.88
2023-04-01T23:52:38.409Z,8.90
2023-04-01T23:53:44.167Z,8.97
2023-04-01T23:54:52.634Z,8.92
2023-04-01T23:55:55.667Z,8.93
2023-04-01T23:56:58.706Z,8.91
2023-04-01T23:58:07.165Z,8.89
2023-04-01T23:59:18.868Z,8.93
